createdAt,value
2023-02-12T00:03:50.971Z,9.85
2023-02-12T00:08:54.828Z,13.20
2023-02-12T00:13:57.659Z,15.60
2023-02-12T00:19:00.880Z,12.77
2023-02-12T00:24:03.547Z,10.25
2023-02-12T00:29:05.665Z,15.90
2023-02-12T00:34:07.794Z,16.02
2023-02-12T00:39:11.113Z,8.95
2023-02-12T00:44:13.345Z,10.15
2023-02-12T00:49:16.041Z,10.85
2023-02-12T00:54:18.590Z,9.63
2023-02-12T00:59:20.671Z,19.15
2023-02-12T01:04:23.235Z,23.25
2023-02-12T01:09:25.594Z,18.08
2023-02-12T01:14:27.769Z,19.98
2023-02-12T01:19:29.818Z,11.80
2023-02-12T01:24:31.949Z,13.73
2023-02-12T01:29:34.017Z,18.20
2023-02-12T01:34:36.754Z,20.40
2023-02-12T01:39:38.897Z,13.90
2023-02-12T01:45:30.260Z,17.70
2023-02-12T01:50:32.370Z,14.75
2023-02-12T01:55:34.660Z,12.73
2023-02-12T02:00:36.899Z,15.73
2023-02-12T02:05:44.209Z,9.48
2023-02-12T02:10:46.293Z,19.25
2023-02-12T02:15:55.061Z,16.85
2023-02-12T02:21:00.508Z,15.05
2023-02-12T02:26:34.733Z,14.98
2023-02-12T02:31:47.289Z,14.80
2023-02-12T02:37:12.984Z,16.48
2023-02-12T02:42:22.533Z,16.42
2023-02-12T02:47:35.340Z,10.45
2023-02-12T02:52:45.356Z,15.13
2023-02-12T02:58:06.055Z,16.73
2023-02-12T03:03:28.610Z,13.43
2023-02-12T03:08:49.619Z,22.38
2023-02-12T03:14:01.906Z,10.20
2023-02-12T03:19:45.021Z,16.10
2023-02-12T03:24:53.470Z,15.70
2023-02-12T03:29:56.039Z,12.13
2023-02-12T03:35:16.750Z,11.13
2023-02-12T03:40:27.781Z,13.43
2023-02-12T03:45:57.081Z,21.42
2023-02-12T03:51:17.481Z,13.75
2023-02-12T03:56:25.444Z,19.88
2023-02-12T04:01:28.577Z,14.38
2023-02-12T04:06:30.745Z,15.32
2023-02-12T04:12:15.788Z,18.30
2023-02-12T04:17:55.246Z,13.57
2023-02-12T04:23:21.940Z,15.55
2023-02-12T04:28:24.056Z,17.92
2023-02-12T04:33:32.403Z,14.77
2023-02-12T04:38:57.517Z,14.87
2023-02-12T04:44:12.891Z,9.52
2023-02-12T04:49:17.550Z,19.55
2023-02-12T04:54:21.841Z,10.50
2023-02-12T04:59:23.991Z,16.40
2023-02-12T05:04:26.202Z,12.73
2023-02-12T05:09:28.381Z,15.70
2023-02-12T05:14:30.576Z,17.50
2023-02-12T05:19:32.840Z,14.02
2023-02-12T05:24:35.005Z,11.57
2023-02-12T05:29:37.499Z,14.63
2023-02-12T05:34:39.848Z,22.73
2023-02-12T05:39:42.027Z,21.02
2023-02-12T05:44:44.133Z,18.27
2023-02-12T05:49:46.253Z,15.93
2023-02-12T05:54:50.553Z,14.25
2023-02-12T05:59:52.823Z,12.38
2023-02-12T06:04:55.070Z,15.18
2023-02-12T06:09:57.209Z,12.68
2023-02-12T06:14:59.490Z,11.85
2023-02-12T06:20:01.639Z,10.93
2023-02-12T06:25:04.373Z,14.65
2023-02-12T06:30:07.179Z,17.20
2023-02-12T06:35:09.259Z,11.95
2023-02-12T06:40:11.637Z,20.85
2023-02-12T06:45:13.814Z,16.02
2023-02-12T06:50:16.605Z,10.93
2023-02-12T06:55:18.956Z,13.32
2023-02-12T07:00:21.737Z,22.13
2023-02-12T07:05:24.815Z,13.05
2023-02-12T07:10:27.006Z,12.90
2023-02-12T07:15:29.171Z,8.88
2023-02-12T07:20:31.268Z,12.50
2023-02-12T07:25:33.391Z,17.60
2023-02-12T07:30:35.603Z,14.65
2023-02-12T07:35:37.756Z,12.93
2023-02-12T07:40:39.920Z,10.27
2023-02-12T07:45:42.120Z,14.07
2023-02-12T07:50:44.252Z,12.65
2023-02-12T07:55:46.667Z,19.92
2023-02-12T08:00:48.709Z,15.40
2023-02-12T08:05:50.818Z,11.77
2023-02-12T08:10:56.126Z,13.63
2023-02-12T08:16:06.664Z,13.63
2023-02-12T08:21:14.533Z,13.15
2023-02-12T08:26:20.911Z,12.50
2023-02-12T08:31:26.140Z,22.85
2023-02-12T08:36:37.272Z,12.68
2023-02-12T08:41:39.404Z,18.58
2023-02-12T08:46:50.267Z,39.25
2023-02-12T08:51:54.776Z,36.90
2023-02-12T08:56:59.251Z,33.78
2023-02-12T09:02:01.952Z,34.78
2023-02-12T09:07:04.176Z,51.42
2023-02-12T09:12:06.304Z,73.90
2023-02-12T09:17:08.611Z,102.22
2023-02-12T09:22:10.735Z,114.50
2023-02-12T09:27:12.988Z,104.20
2023-02-12T09:32:15.194Z,99.22
2023-02-12T09:37:17.646Z,90.60
2023-02-12T09:42:25.994Z,99.28
2023-02-12T09:47:46.230Z,88.33
2023-02-12T09:52:49.352Z,77.70
2023-02-12T09:57:53.718Z,62.10
2023-02-12T10:03:02.155Z,54.42
2023-02-12T10:08:13.958Z,55.70
2023-02-12T10:13:19.339Z,43.22
2023-02-12T10:18:50.668Z,44.55
2023-02-12T10:23:58.510Z,43.38
2023-02-12T10:29:12.877Z,38.00
2023-02-12T10:34:36.367Z,36.60
2023-02-12T10:39:43.752Z,23.63
2023-02-12T10:44:46.928Z,25.80
2023-02-12T10:49:59.230Z,24.25
2023-02-12T10:55:01.761Z,18.55
2023-02-12T11:00:24.341Z,15.73
2023-02-12T11:05:29.198Z,24.63
2023-02-12T11:10:38.897Z,18.20
2023-02-12T11:15:48.857Z,23.23
2023-02-12T11:21:00.100Z,14.25
2023-02-12T11:26:08.122Z,16.27
2023-02-12T11:31:13.343Z,14.65
2023-02-12T11:36:20.795Z,13.02
2023-02-12T11:41:36.556Z,18.53
2023-02-12T11:46:40.662Z,15.73
2023-02-12T11:51:48.196Z,14.23
2023-02-12T11:56:50.529Z,14.55
2023-02-12T12:01:55.581Z,13.88
2023-02-12T12:07:11.939Z,16.98
2023-02-12T12:12:42.851Z,14.13
2023-02-12T12:18:17.573Z,11.57
2023-02-12T12:23:25.409Z,13.93
2023-02-12T12:28:46.391Z,13.20
2023-02-12T12:33:52.144Z,13.23
2023-02-12T12:39:09.429Z,12.82
2023-02-12T12:44:27.715Z,9.85
2023-02-12T12:50:03.668Z,10.43
2023-02-12T12:55:14.913Z,12.93
2023-02-12T13:00:35.184Z,13.63
2023-02-12T13:06:02.056Z,9.10
2023-02-12T13:11:29.610Z,8.90
2023-02-12T13:16:43.219Z,9.63
2023-02-12T13:22:26.295Z,10.50
2023-02-12T13:27:36.968Z,12.50
2023-02-12T13:32:45.538Z,15.57
2023-02-12T13:37:55.869Z,12.67
2023-02-12T13:43:15.931Z,14.80
2023-02-12T13:48:21.149Z,9.27
2023-02-12T13:53:36.383Z,9.95
2023-02-12T13:58:39.578Z,3.83
2023-02-12T14:03:41.872Z,10.27
2023-02-12T14:08:52.590Z,8.18
2023-02-12T14:14:04.244Z,12.60
2023-02-12T14:19:43.799Z,12.25
2023-02-12T14:24:52.713Z,15.73
2023-02-12T14:30:32.425Z,22.95
2023-02-12T14:35:40.591Z,20.40
2023-02-12T14:40:50.257Z,19.02
2023-02-12T14:45:53.246Z,17.67
2023-02-12T14:50:56.053Z,20.30
2023-02-12T14:56:00.067Z,19.33
2023-02-12T15:01:04.283Z,24.30
2023-02-12T15:06:19.615Z,23.88
2023-02-12T15:11:33.683Z,17.85
2023-02-12T15:16:46.008Z,19.65
2023-02-12T15:21:48.772Z,19.40
2023-02-12T15:26:53.251Z,26.30
2023-02-12T15:32:01.861Z,24.88
2023-02-12T15:37:05.416Z,24.10
2023-02-12T15:42:33.637Z,20.27
2023-02-12T15:47:36.130Z,19.70
2023-02-12T15:52:41.280Z,21.67
2023-02-12T15:57:58.100Z,22.35
2023-02-12T16:03:00.305Z,20.67
2023-02-12T16:08:03.102Z,21.90
2023-02-12T16:13:05.476Z,19.40
2023-02-12T16:18:22.325Z,21.60
2023-02-12T16:23:24.615Z,21.60
2023-02-12T16:28:32.152Z,22.45
2023-02-12T16:33:40.918Z,23.92
2023-02-12T16:38:49.299Z,17.77
2023-02-12T16:44:11.811Z,21.40
2023-02-12T16:49:19.111Z,20.58
2023-02-12T16:54:31.671Z,19.45
2023-02-12T16:59:35.058Z,21.10
2023-02-12T17:04:37.499Z,20.73
2023-02-12T17:09:39.833Z,20.42
2023-02-12T17:14:42.057Z,25.05
2023-02-12T17:19:44.310Z,22.98
2023-02-12T17:24:51.425Z,21.95
2023-02-12T17:29:53.609Z,24.52
2023-02-12T17:34:55.774Z,23.92
2023-02-12T17:39:58.031Z,22.75
2023-02-12T17:45:00.166Z,19.35
2023-02-12T17:50:02.646Z,24.67
2023-02-12T17:55:05.705Z,25.98
2023-02-12T18:00:10.140Z,28.70
2023-02-12T18:05:15.135Z,26.08
2023-02-12T18:10:17.717Z,24.00
2023-02-12T18:15:21.289Z,26.95
2023-02-12T18:20:23.444Z,24.48
2023-02-12T18:25:25.658Z,20.55
2023-02-12T18:30:28.372Z,22.23
2023-02-12T18:35:30.572Z,20.35
2023-02-12T18:40:32.871Z,18.13
2023-02-12T18:45:35.205Z,21.13
2023-02-12T18:50:37.614Z,15.43
2023-02-12T18:55:39.997Z,15.60
2023-02-12T19:00:42.173Z,13.38
2023-02-12T19:05:44.480Z,23.48
2023-02-12T19:10:49.547Z,20.02
2023-02-12T19:15:52.029Z,12.73
2023-02-12T19:20:54.187Z,15.38
2023-02-12T19:25:56.310Z,16.23
2023-02-12T19:31:00.103Z,18.83
2023-02-12T19:36:02.682Z,25.67
2023-02-12T19:41:10.418Z,22.85
2023-02-12T19:46:15.876Z,23.65
2023-02-12T19:51:21.380Z,20.40
2023-02-12T19:56:23.505Z,26.75
2023-02-12T20:01:26.941Z,23.17
2023-02-12T20:06:34.821Z,34.17
2023-02-12T20:11:39.236Z,23.30
2023-02-12T20:16:43.763Z,32.22
2023-02-12T20:21:46.422Z,31.88
2023-02-12T20:26:49.008Z,26.35
2023-02-12T20:31:51.277Z,24.38
2023-02-12T20:36:54.267Z,29.33
2023-02-12T20:41:56.492Z,26.50
2023-02-12T20:46:58.800Z,26.90
2023-02-12T20:52:00.947Z,27.60
2023-02-12T20:57:06.741Z,39.05
2023-02-12T21:02:10.357Z,30.10
2023-02-12T21:07:12.482Z,47.72
2023-02-12T21:12:14.849Z,31.98
2023-02-12T21:17:17.260Z,36.50
2023-02-12T21:22:20.262Z,36.22
2023-02-12T21:27:22.493Z,46.53
2023-02-12T21:32:24.746Z,31.55
2023-02-12T21:37:27.189Z,41.00
2023-02-12T21:42:30.880Z,34.63
2023-02-12T21:47:33.270Z,34.00
2023-02-12T21:52:35.559Z,32.70
2023-02-12T21:57:37.725Z,33.78
2023-02-12T22:02:40.126Z,32.35
2023-02-12T22:07:42.311Z,34.15
2023-02-12T22:12:44.656Z,36.30
2023-02-12T22:17:47.214Z,29.80
2023-02-12T22:22:49.415Z,29.08
2023-02-12T22:27:51.582Z,28.55
2023-02-12T22:32:53.758Z,30.42
2023-02-12T22:37:55.924Z,28.02
2023-02-12T22:42:58.105Z,33.25
2023-02-12T22:48:00.247Z,23.83
2023-02-12T22:53:02.402Z,29.52
2023-02-12T22:58:05.036Z,24.55
2023-02-12T23:03:07.708Z,24.77
2023-02-12T23:08:09.873Z,26.45
2023-02-12T23:13:18.508Z,30.25
2023-02-12T23:18:27.114Z,19.35
2023-02-12T23:23:29.278Z,30.85
2023-02-12T23:28:31.733Z,35.08
2023-02-12T23:33:33.883Z,35.17
2023-02-12T23:38:36.093Z,30.75
2023-02-12T23:43:38.321Z,27.60
2023-02-12T23:48:41.257Z,32.35
2023-02-12T23:53:43.419Z,28.73
2023-02-12T23:58:45.629Z,20.02
